GLO1740 SBBR-SBBV
Flight info
| Callsign | GLO1740 |
|---|---|
| Flight time | 3h 36m |
| Altitude | 38000 |
| Route | ILKUS DCT OPNAX UZ24 ILVIS DCT BVI |
| Aircraft | B738/M-SDFGIKLORWXY/LB1 |
Departure
| Time | 2026-04-16 12:06 |
|---|---|
| Airport | Presidente Juscelino Kubitschek International Airport (SBBR) |
Arrival
| Time | 2026-04-16 15:42 |
|---|---|
| Airport | Atlas Brasil Cantanhede International Airport (SBBV) |
| Time | Latitude | Longitude | Altitude | Speed | Heading |
|---|---|---|---|---|---|
| 2026-04-16 11:41 | -15.86710 | -47.91843 | 3471 ft | 0 kts | 176° |
| 2026-04-16 11:59 | -15.86691 | -47.91845 | 3468 ft | 4 kts | 173° |
| 2026-04-16 11:59 | -15.86664 | -47.91848 | 3470 ft | 4 kts | 176° |
| 2026-04-16 12:00 | -15.86638 | -47.91846 | 3470 ft | 4 kts | 207° |
| 2026-04-16 12:00 | -15.86619 | -47.91832 | 3470 ft | 4 kts | 239° |
| 2026-04-16 12:00 | -15.86611 | -47.91806 | 3469 ft | 4 kts | 264° |
| 2026-04-16 12:00 | -15.86610 | -47.91791 | 3467 ft | 1 kts | 266° |
| 2026-04-16 12:02 | -15.86611 | -47.91798 | 3468 ft | 2 kts | 266° |
| 2026-04-16 12:02 | -15.86613 | -47.91824 | 3468 ft | 5 kts | 266° |
| 2026-04-16 12:03 | -15.86616 | -47.91873 | 3470 ft | 8 kts | 266° |
| 2026-04-16 12:03 | -15.86620 | -47.91941 | 3470 ft | 11 kts | 266° |
| 2026-04-16 12:03 | -15.86625 | -47.92025 | 3471 ft | 13 kts | 266° |
| 2026-04-16 12:03 | -15.86632 | -47.92126 | 3471 ft | 15 kts | 265° |
| 2026-04-16 12:04 | -15.86602 | -47.92235 | 3469 ft | 17 kts | 296° |
| 2026-04-16 12:04 | -15.86537 | -47.92351 | 3467 ft | 20 kts | 291° |
| 2026-04-16 12:04 | -15.86533 | -47.92503 | 3466 ft | 22 kts | 266° |
| 2026-04-16 12:04 | -15.86543 | -47.92644 | 3463 ft | 20 kts | 265° |
| 2026-04-16 12:05 | -15.86531 | -47.92756 | 3461 ft | 12 kts | 318° |
| 2026-04-16 12:05 | -15.86443 | -47.92770 | 3460 ft | 14 kts | 6° |
| 2026-04-16 12:05 | -15.86367 | -47.92710 | 3459 ft | 13 kts | 52° |
| 2026-04-16 12:05 | -15.86349 | -47.92616 | 3460 ft | 23 kts | 86° |
| 2026-04-16 12:06 | -15.86323 | -47.92209 | 3465 ft | 89 kts | 86° |
| 2026-04-16 12:06 | -15.86268 | -47.91363 | 3463 ft | 144 kts | 86° |
| 2026-04-16 12:06 | -15.86201 | -47.90167 | 3569 ft | 183 kts | 86° |
| 2026-04-16 12:06 | -15.86121 | -47.88839 | 4400 ft | 181 kts | 86° |
| 2026-04-16 12:07 | -15.86033 | -47.87570 | 5351 ft | 174 kts | 86° |
| 2026-04-16 12:07 | -15.85948 | -47.86247 | 5739 ft | 197 kts | 86° |
| 2026-04-16 12:07 | -15.85848 | -47.84752 | 5955 ft | 223 kts | 85° |
| 2026-04-16 12:07 | -15.85736 | -47.83060 | 6262 ft | 245 kts | 86° |
| 2026-04-16 12:08 | -15.85615 | -47.81189 | 6527 ft | 269 kts | 86° |
| 2026-04-16 12:08 | -15.85451 | -47.79259 | 7360 ft | 271 kts | 78° |
| 2026-04-16 12:08 | -15.84686 | -47.77458 | 7965 ft | 278 kts | 52° |
| 2026-04-16 12:08 | -15.83251 | -47.76103 | 8697 ft | 284 kts | 31° |
| 2026-04-16 12:09 | -15.81409 | -47.75292 | 9326 ft | 292 kts | 11° |
| 2026-04-16 12:09 | -15.79381 | -47.75313 | 10049 ft | 295 kts | 346° |
| 2026-04-16 12:09 | -15.77452 | -47.76091 | 10551 ft | 305 kts | 334° |
| 2026-04-16 12:09 | -15.75470 | -47.77093 | 10689 ft | 328 kts | 333° |
| 2026-04-16 12:10 | -15.73366 | -47.78204 | 10880 ft | 348 kts | 332° |
| 2026-04-16 12:10 | -15.71180 | -47.79365 | 11319 ft | 357 kts | 332° |
| 2026-04-16 12:10 | -15.68957 | -47.80539 | 11935 ft | 360 kts | 332° |
| 2026-04-16 12:10 | -15.66709 | -47.81715 | 12575 ft | 363 kts | 332° |
| 2026-04-16 12:11 | -15.64440 | -47.82896 | 13167 ft | 367 kts | 332° |
| 2026-04-16 12:11 | -15.62143 | -47.84084 | 13781 ft | 370 kts | 332° |
| 2026-04-16 12:11 | -15.59825 | -47.85279 | 14290 ft | 374 kts | 332° |
| 2026-04-16 12:11 | -15.57485 | -47.86485 | 14801 ft | 377 kts | 332° |
| 2026-04-16 12:12 | -15.55128 | -47.87699 | 15325 ft | 379 kts | 332° |
| 2026-04-16 12:12 | -15.52754 | -47.88919 | 15837 ft | 382 kts | 332° |
| 2026-04-16 12:12 | -15.50361 | -47.90148 | 16301 ft | 386 kts | 332° |
| 2026-04-16 12:12 | -15.47968 | -47.91378 | 16786 ft | 389 kts | 332° |
| 2026-04-16 12:13 | -15.45503 | -47.92646 | 17283 ft | 392 kts | 332° |
| 2026-04-16 12:13 | -15.43054 | -47.93904 | 17767 ft | 395 kts | 332° |
| 2026-04-16 12:13 | -15.40612 | -47.95157 | 18200 ft | 398 kts | 332° |
| 2026-04-16 12:13 | -15.38119 | -47.96437 | 18620 ft | 401 kts | 332° |
| 2026-04-16 12:14 | -15.35609 | -47.97724 | 19009 ft | 403 kts | 332° |
| 2026-04-16 12:14 | -15.33086 | -47.99019 | 19392 ft | 406 kts | 332° |
| 2026-04-16 12:14 | -15.30548 | -48.00321 | 19788 ft | 408 kts | 332° |
| 2026-04-16 12:14 | -15.28001 | -48.01627 | 20158 ft | 410 kts | 332° |
| 2026-04-16 12:15 | -15.25432 | -48.02944 | 20538 ft | 413 kts | 332° |
| 2026-04-16 12:15 | -15.22854 | -48.04265 | 20911 ft | 415 kts | 332° |
| 2026-04-16 12:15 | -15.20261 | -48.05593 | 21280 ft | 417 kts | 333° |
| 2026-04-16 12:15 | -15.17651 | -48.06930 | 21659 ft | 419 kts | 333° |
| 2026-04-16 12:16 | -15.15030 | -48.08273 | 22025 ft | 421 kts | 333° |
| 2026-04-16 12:16 | -15.12401 | -48.09619 | 22357 ft | 423 kts | 333° |
| 2026-04-16 12:16 | -15.09751 | -48.10976 | 22702 ft | 426 kts | 333° |
| 2026-04-16 12:16 | -15.07093 | -48.12335 | 23041 ft | 428 kts | 333° |
| 2026-04-16 12:17 | -15.04419 | -48.13703 | 23353 ft | 430 kts | 333° |
| 2026-04-16 12:17 | -15.01718 | -48.15084 | 23649 ft | 433 kts | 333° |
| 2026-04-16 12:17 | -14.99015 | -48.16467 | 23900 ft | 435 kts | 333° |
| 2026-04-16 12:17 | -14.96298 | -48.17856 | 24166 ft | 437 kts | 333° |
| 2026-04-16 12:18 | -14.93602 | -48.19242 | 24408 ft | 439 kts | 331° |
| 2026-04-16 12:18 | -14.90970 | -48.20927 | 24638 ft | 441 kts | 322° |
| 2026-04-16 12:18 | -14.88615 | -48.22901 | 24905 ft | 442 kts | 319° |
| 2026-04-16 12:18 | -14.86264 | -48.24956 | 25162 ft | 444 kts | 319° |
| 2026-04-16 12:19 | -14.83907 | -48.27036 | 25418 ft | 446 kts | 319° |
| 2026-04-16 12:19 | -14.81537 | -48.29122 | 25679 ft | 448 kts | 319° |
| 2026-04-16 12:19 | -14.79158 | -48.31203 | 25938 ft | 450 kts | 319° |
| 2026-04-16 12:19 | -14.76756 | -48.33289 | 26189 ft | 452 kts | 319° |
| 2026-04-16 12:20 | -14.74340 | -48.35379 | 26433 ft | 453 kts | 319° |
| 2026-04-16 12:20 | -14.71912 | -48.37472 | 26691 ft | 455 kts | 319° |
| 2026-04-16 12:20 | -14.69479 | -48.39566 | 26938 ft | 457 kts | 319° |
| 2026-04-16 12:20 | -14.67025 | -48.41676 | 27186 ft | 458 kts | 319° |
| 2026-04-16 12:21 | -14.64573 | -48.43785 | 27419 ft | 460 kts | 319° |
| 2026-04-16 12:21 | -14.62105 | -48.45907 | 27657 ft | 462 kts | 319° |
| 2026-04-16 12:21 | -14.59629 | -48.48035 | 27895 ft | 463 kts | 319° |
| 2026-04-16 12:21 | -14.57144 | -48.50170 | 28126 ft | 465 kts | 319° |
| 2026-04-16 12:22 | -14.54655 | -48.52309 | 28352 ft | 467 kts | 319° |
| 2026-04-16 12:22 | -14.52154 | -48.54457 | 28568 ft | 469 kts | 319° |
| 2026-04-16 12:22 | -14.49637 | -48.56618 | 28789 ft | 470 kts | 319° |
| 2026-04-16 12:22 | -14.47154 | -48.58750 | 29001 ft | 472 kts | 319° |
| 2026-04-16 12:23 | -14.44619 | -48.60925 | 29212 ft | 474 kts | 319° |
| 2026-04-16 12:23 | -14.42081 | -48.63103 | 29418 ft | 475 kts | 319° |
| 2026-04-16 12:23 | -14.39537 | -48.65284 | 29626 ft | 477 kts | 319° |
| 2026-04-16 12:23 | -14.36980 | -48.67478 | 29841 ft | 478 kts | 319° |
| 2026-04-16 12:24 | -14.34412 | -48.69679 | 30084 ft | 478 kts | 319° |
| 2026-04-16 12:24 | -14.31857 | -48.71868 | 30343 ft | 477 kts | 319° |
| 2026-04-16 12:24 | -14.29303 | -48.74055 | 30625 ft | 476 kts | 319° |
| 2026-04-16 12:24 | -14.26763 | -48.76230 | 30913 ft | 474 kts | 319° |
| 2026-04-16 12:25 | -14.24225 | -48.78403 | 31192 ft | 473 kts | 319° |
| 2026-04-16 12:25 | -14.21695 | -48.80568 | 31452 ft | 473 kts | 319° |
| 2026-04-16 12:25 | -14.19164 | -48.82734 | 31714 ft | 472 kts | 319° |
| 2026-04-16 12:25 | -14.16644 | -48.84889 | 31996 ft | 471 kts | 318° |
| 2026-04-16 12:26 | -14.14125 | -48.87043 | 32266 ft | 470 kts | 318° |
| 2026-04-16 12:26 | -14.11610 | -48.89193 | 32523 ft | 469 kts | 318° |
| 2026-04-16 12:26 | -14.09104 | -48.91335 | 32794 ft | 468 kts | 318° |
| 2026-04-16 12:26 | -14.06597 | -48.93476 | 33068 ft | 467 kts | 318° |
| 2026-04-16 12:27 | -14.04101 | -48.95609 | 33339 ft | 466 kts | 318° |
| 2026-04-16 12:27 | -14.01604 | -48.97741 | 33616 ft | 465 kts | 318° |
| 2026-04-16 12:27 | -13.99144 | -48.99840 | 33876 ft | 465 kts | 317° |
| 2026-04-16 12:27 | -13.96630 | -49.01987 | 34103 ft | 464 kts | 317° |
| 2026-04-16 12:28 | -13.94170 | -49.04085 | 34303 ft | 464 kts | 317° |
| 2026-04-16 12:28 | -13.91689 | -49.06202 | 34486 ft | 464 kts | 317° |
| 2026-04-16 12:28 | -13.89201 | -49.08323 | 34666 ft | 464 kts | 317° |
| 2026-04-16 12:28 | -13.86714 | -49.10445 | 34863 ft | 464 kts | 317° |
| 2026-04-16 12:29 | -13.84228 | -49.12563 | 35063 ft | 463 kts | 317° |
| 2026-04-16 12:29 | -13.81740 | -49.14677 | 35243 ft | 464 kts | 318° |
| 2026-04-16 12:29 | -13.79091 | -49.16594 | 35382 ft | 467 kts | 326° |
| 2026-04-16 12:29 | -13.76287 | -49.18280 | 35572 ft | 467 kts | 327° |
| 2026-04-16 12:30 | -13.73494 | -49.19895 | 35750 ft | 467 kts | 328° |
| 2026-04-16 12:30 | -13.71564 | -49.21000 | 35863 ft | 467 kts | 328° |
| 2026-04-16 12:30 | -13.65872 | -49.24280 | 35944 ft | 470 kts | 327° |
| 2026-04-16 12:31 | -13.59284 | -49.28134 | 35955 ft | 467 kts | 327° |
| 2026-04-16 12:31 | -13.53650 | -49.31453 | 35958 ft | 465 kts | 327° |
| 2026-04-16 12:32 | -13.48959 | -49.34217 | 35954 ft | 464 kts | 327° |
| 2026-04-16 12:32 | -13.43399 | -49.37489 | 35957 ft | 463 kts | 327° |
| 2026-04-16 12:33 | -13.37806 | -49.40778 | 35957 ft | 462 kts | 327° |
| 2026-04-16 12:33 | -13.32217 | -49.44063 | 35957 ft | 463 kts | 327° |
| 2026-04-16 12:34 | -13.26654 | -49.47330 | 35957 ft | 464 kts | 327° |
| 2026-04-16 12:34 | -13.21046 | -49.50623 | 35952 ft | 465 kts | 327° |
| 2026-04-16 12:35 | -13.15416 | -49.53926 | 35960 ft | 466 kts | 327° |
| 2026-04-16 12:35 | -13.09779 | -49.57232 | 35957 ft | 467 kts | 327° |
| 2026-04-16 12:36 | -13.04120 | -49.60549 | 35957 ft | 468 kts | 327° |
| 2026-04-16 12:36 | -12.98457 | -49.63867 | 35951 ft | 469 kts | 328° |
| 2026-04-16 12:37 | -12.92781 | -49.67198 | 35957 ft | 470 kts | 327° |
| 2026-04-16 12:37 | -12.87121 | -49.70549 | 35953 ft | 470 kts | 327° |
| 2026-04-16 12:38 | -12.81466 | -49.73903 | 35954 ft | 469 kts | 327° |
| 2026-04-16 12:38 | -12.75815 | -49.77249 | 35954 ft | 469 kts | 327° |
| 2026-04-16 12:39 | -12.70164 | -49.80592 | 35960 ft | 468 kts | 327° |
| 2026-04-16 12:39 | -12.64519 | -49.83928 | 35958 ft | 468 kts | 327° |
| 2026-04-16 12:40 | -12.58882 | -49.87259 | 35956 ft | 467 kts | 328° |
| 2026-04-16 12:40 | -12.53291 | -49.90560 | 35960 ft | 466 kts | 328° |
| 2026-04-16 12:41 | -12.47677 | -49.93874 | 35957 ft | 466 kts | 328° |
| 2026-04-16 12:41 | -12.42063 | -49.97186 | 35959 ft | 465 kts | 328° |
| 2026-04-16 12:42 | -12.36459 | -50.00490 | 35962 ft | 465 kts | 328° |
| 2026-04-16 12:42 | -12.30852 | -50.03794 | 35968 ft | 465 kts | 328° |
| 2026-04-16 12:43 | -12.25243 | -50.07098 | 35956 ft | 465 kts | 328° |
| 2026-04-16 12:43 | -12.19639 | -50.10397 | 35962 ft | 465 kts | 328° |
| 2026-04-16 12:44 | -12.14028 | -50.13699 | 35959 ft | 465 kts | 328° |
| 2026-04-16 12:44 | -12.08419 | -50.16998 | 35958 ft | 465 kts | 328° |
| 2026-04-16 12:45 | -12.02801 | -50.20301 | 35962 ft | 466 kts | 328° |
| 2026-04-16 12:45 | -11.97184 | -50.23602 | 35962 ft | 466 kts | 328° |
| 2026-04-16 12:46 | -11.91592 | -50.26885 | 35962 ft | 466 kts | 328° |
| 2026-04-16 12:46 | -11.85964 | -50.30189 | 35963 ft | 467 kts | 328° |
| 2026-04-16 12:47 | -11.80326 | -50.33498 | 35965 ft | 467 kts | 328° |
| 2026-04-16 12:47 | -11.74685 | -50.36806 | 35962 ft | 467 kts | 328° |
| 2026-04-16 12:48 | -11.69050 | -50.40109 | 35964 ft | 467 kts | 328° |
| 2026-04-16 12:48 | -11.63415 | -50.43411 | 35968 ft | 467 kts | 328° |
| 2026-04-16 12:49 | -11.57772 | -50.46716 | 35968 ft | 467 kts | 329° |
| 2026-04-16 12:49 | -11.52132 | -50.50017 | 35966 ft | 467 kts | 329° |
| 2026-04-16 12:50 | -11.46502 | -50.53312 | 35964 ft | 467 kts | 329° |
| 2026-04-16 12:50 | -11.40869 | -50.56607 | 35967 ft | 466 kts | 329° |
| 2026-04-16 12:51 | -11.35448 | -50.59777 | 35971 ft | 466 kts | 329° |
| 2026-04-16 12:51 | -11.29819 | -50.63071 | 35971 ft | 465 kts | 329° |
| 2026-04-16 12:52 | -11.24199 | -50.66358 | 35971 ft | 465 kts | 329° |
| 2026-04-16 12:52 | -11.18587 | -50.69640 | 35972 ft | 465 kts | 329° |
| 2026-04-16 12:53 | -11.12969 | -50.72923 | 35969 ft | 465 kts | 329° |
| 2026-04-16 12:53 | -11.07391 | -50.76181 | 35970 ft | 465 kts | 329° |
| 2026-04-16 12:54 | -11.01773 | -50.79462 | 35972 ft | 465 kts | 329° |
| 2026-04-16 12:54 | -10.96152 | -50.82743 | 35970 ft | 465 kts | 329° |
| 2026-04-16 12:55 | -10.90535 | -50.86020 | 35972 ft | 466 kts | 329° |
| 2026-04-16 12:55 | -10.84899 | -50.89307 | 35975 ft | 466 kts | 329° |
| 2026-04-16 12:56 | -10.79270 | -50.92588 | 35971 ft | 467 kts | 329° |
| 2026-04-16 12:56 | -10.73629 | -50.95875 | 35971 ft | 467 kts | 329° |
| 2026-04-16 12:57 | -10.67983 | -50.99163 | 35974 ft | 467 kts | 329° |
| 2026-04-16 12:57 | -10.62376 | -51.02428 | 35975 ft | 468 kts | 329° |
| 2026-04-16 12:58 | -10.56729 | -51.05715 | 35975 ft | 468 kts | 329° |
| 2026-04-16 12:58 | -10.51079 | -51.09014 | 35976 ft | 468 kts | 328° |
| 2026-04-16 12:59 | -10.45577 | -51.12549 | 35976 ft | 467 kts | 326° |
| 2026-04-16 13:00 | -10.37445 | -51.18005 | 35980 ft | 467 kts | 326° |
| 2026-04-16 13:00 | -10.32005 | -51.21620 | 35975 ft | 467 kts | 326° |
| 2026-04-16 13:01 | -10.26558 | -51.25215 | 35979 ft | 466 kts | 326° |
| 2026-04-16 13:01 | -10.21116 | -51.28797 | 35982 ft | 466 kts | 326° |
| 2026-04-16 13:02 | -10.15704 | -51.32360 | 35981 ft | 466 kts | 326° |
| 2026-04-16 13:02 | -10.10271 | -51.35936 | 35982 ft | 465 kts | 326° |
| 2026-04-16 13:03 | -10.04834 | -51.39514 | 35980 ft | 465 kts | 326° |
| 2026-04-16 13:03 | -9.99403 | -51.43086 | 35985 ft | 465 kts | 326° |
| 2026-04-16 13:04 | -9.93957 | -51.46666 | 35987 ft | 466 kts | 326° |
| 2026-04-16 13:04 | -9.88519 | -51.50240 | 35985 ft | 466 kts | 326° |
| 2026-04-16 13:05 | -9.83068 | -51.53821 | 35981 ft | 467 kts | 326° |
| 2026-04-16 13:05 | -9.77617 | -51.57401 | 35981 ft | 467 kts | 326° |
| 2026-04-16 13:06 | -9.72191 | -51.60962 | 35986 ft | 468 kts | 326° |
| 2026-04-16 13:06 | -9.66723 | -51.64550 | 35986 ft | 468 kts | 326° |
| 2026-04-16 13:07 | -9.61255 | -51.68137 | 35983 ft | 469 kts | 326° |
| 2026-04-16 13:07 | -9.55768 | -51.71734 | 35980 ft | 469 kts | 326° |
| 2026-04-16 13:08 | -9.50285 | -51.75328 | 35978 ft | 470 kts | 326° |
| 2026-04-16 13:08 | -9.44783 | -51.78932 | 35979 ft | 470 kts | 326° |
| 2026-04-16 13:09 | -9.39319 | -51.82511 | 35977 ft | 470 kts | 326° |
| 2026-04-16 13:09 | -9.33823 | -51.86108 | 35974 ft | 471 kts | 326° |
| 2026-04-16 13:10 | -9.28320 | -51.89710 | 35970 ft | 471 kts | 326° |
| 2026-04-16 13:10 | -9.22824 | -51.93305 | 35975 ft | 471 kts | 326° |
| 2026-04-16 13:11 | -9.17321 | -51.96903 | 35973 ft | 470 kts | 326° |
| 2026-04-16 13:11 | -9.11829 | -52.00493 | 35973 ft | 470 kts | 326° |
| 2026-04-16 13:12 | -9.06335 | -52.04083 | 35975 ft | 469 kts | 326° |
| 2026-04-16 13:12 | -9.00845 | -52.07668 | 35975 ft | 469 kts | 326° |
| 2026-04-16 13:13 | -8.95362 | -52.11249 | 35971 ft | 468 kts | 326° |
| 2026-04-16 13:13 | -8.89884 | -52.14824 | 35969 ft | 468 kts | 326° |
| 2026-04-16 13:14 | -8.84418 | -52.18391 | 35972 ft | 468 kts | 327° |
| 2026-04-16 13:14 | -8.78987 | -52.21934 | 35972 ft | 467 kts | 327° |
| 2026-04-16 13:15 | -8.73524 | -52.25495 | 35976 ft | 467 kts | 327° |
| 2026-04-16 13:15 | -8.68066 | -52.29053 | 35976 ft | 466 kts | 327° |
| 2026-04-16 13:16 | -8.62612 | -52.32608 | 35971 ft | 466 kts | 327° |
| 2026-04-16 13:16 | -8.57168 | -52.36154 | 35975 ft | 466 kts | 327° |
| 2026-04-16 13:17 | -8.52640 | -52.39105 | 35971 ft | 466 kts | 327° |
| 2026-04-16 13:17 | -8.46320 | -52.43230 | 35974 ft | 465 kts | 327° |
| 2026-04-16 13:18 | -8.40876 | -52.46782 | 35976 ft | 466 kts | 327° |
| 2026-04-16 13:18 | -8.36312 | -52.49759 | 35975 ft | 466 kts | 327° |
| 2026-04-16 13:19 | -8.30903 | -52.53287 | 35972 ft | 466 kts | 326° |
| 2026-04-16 13:19 | -8.25445 | -52.56844 | 35973 ft | 467 kts | 327° |
| 2026-04-16 13:20 | -8.19979 | -52.60406 | 35971 ft | 468 kts | 326° |
| 2026-04-16 13:20 | -8.14500 | -52.63975 | 35970 ft | 468 kts | 326° |
| 2026-04-16 13:21 | -8.09020 | -52.67544 | 35973 ft | 469 kts | 326° |
| 2026-04-16 13:21 | -8.03535 | -52.71115 | 35968 ft | 469 kts | 326° |
| 2026-04-16 13:22 | -7.98089 | -52.74659 | 35974 ft | 469 kts | 326° |
| 2026-04-16 13:22 | -7.92600 | -52.78230 | 35972 ft | 469 kts | 326° |
| 2026-04-16 13:23 | -7.87119 | -52.81794 | 35972 ft | 469 kts | 327° |
| 2026-04-16 13:23 | -7.81633 | -52.85361 | 35972 ft | 468 kts | 327° |
| 2026-04-16 13:24 | -7.76169 | -52.88912 | 35972 ft | 467 kts | 327° |
| 2026-04-16 13:24 | -7.70712 | -52.92458 | 35968 ft | 466 kts | 327° |
| 2026-04-16 13:25 | -7.65273 | -52.95991 | 35970 ft | 465 kts | 327° |
| 2026-04-16 13:25 | -7.59839 | -52.99519 | 35972 ft | 464 kts | 327° |
| 2026-04-16 13:26 | -7.54415 | -53.03040 | 35971 ft | 463 kts | 327° |
| 2026-04-16 13:26 | -7.49002 | -53.06553 | 35971 ft | 463 kts | 327° |
| 2026-04-16 13:27 | -7.43611 | -53.10051 | 35973 ft | 463 kts | 327° |
| 2026-04-16 13:27 | -7.38179 | -53.13574 | 35974 ft | 464 kts | 327° |
| 2026-04-16 13:28 | -7.32733 | -53.17105 | 35972 ft | 466 kts | 327° |
| 2026-04-16 13:28 | -7.27276 | -53.20642 | 35969 ft | 467 kts | 327° |
| 2026-04-16 13:29 | -7.21796 | -53.24193 | 35971 ft | 469 kts | 327° |
| 2026-04-16 13:29 | -7.16300 | -53.27754 | 35968 ft | 470 kts | 327° |
| 2026-04-16 13:30 | -7.10795 | -53.31319 | 35965 ft | 471 kts | 327° |
| 2026-04-16 13:30 | -7.05310 | -53.34870 | 35967 ft | 472 kts | 326° |
| 2026-04-16 13:31 | -6.99788 | -53.38444 | 35967 ft | 472 kts | 326° |
| 2026-04-16 13:31 | -6.94263 | -53.42018 | 35964 ft | 472 kts | 326° |
| 2026-04-16 13:32 | -6.88741 | -53.45591 | 35964 ft | 472 kts | 326° |
| 2026-04-16 13:32 | -6.83216 | -53.49163 | 35962 ft | 471 kts | 326° |
| 2026-04-16 13:33 | -6.77698 | -53.52731 | 35965 ft | 471 kts | 326° |
| 2026-04-16 13:33 | -6.72195 | -53.56288 | 35965 ft | 470 kts | 326° |
| 2026-04-16 13:34 | -6.66682 | -53.59850 | 35967 ft | 469 kts | 326° |
| 2026-04-16 13:34 | -6.61193 | -53.63396 | 35956 ft | 469 kts | 326° |
| 2026-04-16 13:35 | -6.55714 | -53.66934 | 35960 ft | 468 kts | 326° |
| 2026-04-16 13:35 | -6.50270 | -53.70449 | 35964 ft | 467 kts | 326° |
| 2026-04-16 13:36 | -6.44808 | -53.73974 | 35962 ft | 466 kts | 326° |
| 2026-04-16 13:36 | -6.39342 | -53.77502 | 35962 ft | 466 kts | 326° |
| 2026-04-16 13:37 | -6.33916 | -53.81002 | 35958 ft | 466 kts | 326° |
| 2026-04-16 13:37 | -6.28461 | -53.84521 | 35959 ft | 465 kts | 326° |
| 2026-04-16 13:38 | -6.23010 | -53.88035 | 35954 ft | 466 kts | 326° |
| 2026-04-16 13:38 | -6.17545 | -53.91559 | 35957 ft | 466 kts | 326° |
| 2026-04-16 13:39 | -6.12088 | -53.95076 | 35960 ft | 466 kts | 326° |
| 2026-04-16 13:39 | -6.06621 | -53.98598 | 35959 ft | 467 kts | 326° |
| 2026-04-16 13:40 | -6.01150 | -54.02123 | 35961 ft | 467 kts | 326° |
| 2026-04-16 13:40 | -5.95672 | -54.05651 | 35959 ft | 467 kts | 326° |
| 2026-04-16 13:41 | -5.90197 | -54.09176 | 35966 ft | 468 kts | 326° |
| 2026-04-16 13:41 | -5.84716 | -54.12705 | 35959 ft | 468 kts | 326° |
| 2026-04-16 13:42 | -5.79269 | -54.16211 | 35960 ft | 468 kts | 326° |
| 2026-04-16 13:42 | -5.73792 | -54.19735 | 35962 ft | 468 kts | 326° |
| 2026-04-16 13:43 | -5.68311 | -54.23262 | 35964 ft | 467 kts | 326° |
| 2026-04-16 13:43 | -5.62853 | -54.26812 | 35963 ft | 467 kts | 326° |
| 2026-04-16 13:44 | -5.57438 | -54.30407 | 35953 ft | 467 kts | 325° |
| 2026-04-16 13:44 | -5.52031 | -54.34001 | 35959 ft | 466 kts | 325° |
| 2026-04-16 13:45 | -5.46613 | -54.37591 | 35959 ft | 466 kts | 326° |
| 2026-04-16 13:45 | -5.41204 | -54.41170 | 35957 ft | 465 kts | 326° |
| 2026-04-16 13:46 | -5.35840 | -54.44717 | 35951 ft | 465 kts | 326° |
| 2026-04-16 13:46 | -5.30433 | -54.48292 | 35960 ft | 464 kts | 326° |
| 2026-04-16 13:47 | -5.25035 | -54.51861 | 35963 ft | 464 kts | 326° |
| 2026-04-16 13:47 | -5.19645 | -54.55425 | 35960 ft | 464 kts | 326° |
| 2026-04-16 13:48 | -5.14252 | -54.58989 | 35962 ft | 464 kts | 326° |
| 2026-04-16 13:48 | -5.08848 | -54.62561 | 35962 ft | 464 kts | 326° |
| 2026-04-16 13:49 | -5.03448 | -54.66128 | 35962 ft | 464 kts | 326° |
| 2026-04-16 13:49 | -4.98047 | -54.69698 | 35966 ft | 465 kts | 326° |
| 2026-04-16 13:50 | -4.92677 | -54.73246 | 35963 ft | 465 kts | 326° |
| 2026-04-16 13:50 | -4.87275 | -54.76817 | 35964 ft | 465 kts | 326° |
| 2026-04-16 13:51 | -4.81872 | -54.80388 | 35963 ft | 465 kts | 326° |
| 2026-04-16 13:51 | -4.76466 | -54.83960 | 35968 ft | 466 kts | 326° |
| 2026-04-16 13:52 | -4.71045 | -54.87541 | 35964 ft | 466 kts | 326° |
| 2026-04-16 13:52 | -4.65628 | -54.91119 | 35968 ft | 466 kts | 326° |
| 2026-04-16 13:53 | -4.60214 | -54.94695 | 35964 ft | 466 kts | 326° |
| 2026-04-16 13:53 | -4.54827 | -54.98252 | 35966 ft | 467 kts | 326° |
| 2026-04-16 13:54 | -4.49399 | -55.01835 | 35962 ft | 467 kts | 326° |
| 2026-04-16 13:54 | -4.43975 | -55.05415 | 35966 ft | 467 kts | 326° |
| 2026-04-16 13:55 | -4.38550 | -55.08995 | 35965 ft | 467 kts | 325° |
| 2026-04-16 13:55 | -4.33125 | -55.12574 | 35963 ft | 467 kts | 325° |
| 2026-04-16 13:56 | -4.27695 | -55.16156 | 35960 ft | 467 kts | 325° |
| 2026-04-16 13:56 | -4.22274 | -55.19731 | 35953 ft | 467 kts | 325° |
| 2026-04-16 13:57 | -4.16850 | -55.23309 | 35951 ft | 466 kts | 325° |
| 2026-04-16 13:57 | -4.11435 | -55.26880 | 35959 ft | 466 kts | 325° |
| 2026-04-16 13:58 | -4.03312 | -55.32236 | 35956 ft | 464 kts | 326° |
| 2026-04-16 13:58 | -3.97950 | -55.35771 | 35955 ft | 464 kts | 326° |
| 2026-04-16 13:59 | -3.92562 | -55.39328 | 35953 ft | 463 kts | 326° |
| 2026-04-16 13:59 | -3.87180 | -55.42881 | 35951 ft | 463 kts | 326° |
| 2026-04-16 14:00 | -3.81811 | -55.46426 | 35956 ft | 462 kts | 326° |
| 2026-04-16 14:00 | -3.76438 | -55.49972 | 35955 ft | 462 kts | 326° |
| 2026-04-16 14:01 | -3.71065 | -55.53517 | 35952 ft | 462 kts | 326° |
| 2026-04-16 14:01 | -3.65725 | -55.57040 | 35957 ft | 463 kts | 326° |
| 2026-04-16 14:02 | -3.60316 | -55.60610 | 35951 ft | 463 kts | 326° |
| 2026-04-16 14:02 | -3.54966 | -55.64139 | 35953 ft | 464 kts | 326° |
| 2026-04-16 14:03 | -3.49579 | -55.67691 | 35955 ft | 464 kts | 326° |
| 2026-04-16 14:03 | -3.44180 | -55.71252 | 35959 ft | 465 kts | 326° |
| 2026-04-16 14:04 | -3.38779 | -55.74813 | 35965 ft | 465 kts | 326° |
| 2026-04-16 14:04 | -3.34242 | -55.77805 | 35960 ft | 466 kts | 326° |
| 2026-04-16 14:05 | -3.28862 | -55.81352 | 35960 ft | 466 kts | 326° |
| 2026-04-16 14:05 | -3.23430 | -55.84933 | 35956 ft | 467 kts | 326° |
| 2026-04-16 14:06 | -3.18006 | -55.88508 | 35960 ft | 467 kts | 326° |
| 2026-04-16 14:06 | -3.12572 | -55.92085 | 35954 ft | 467 kts | 326° |
| 2026-04-16 14:07 | -3.07161 | -55.95640 | 35961 ft | 467 kts | 326° |
| 2026-04-16 14:07 | -3.01732 | -55.99207 | 35958 ft | 467 kts | 326° |
| 2026-04-16 14:08 | -2.96308 | -56.02772 | 35957 ft | 466 kts | 326° |
| 2026-04-16 14:08 | -2.90889 | -56.06335 | 35956 ft | 466 kts | 326° |
| 2026-04-16 14:09 | -2.85461 | -56.09902 | 35958 ft | 466 kts | 326° |
| 2026-04-16 14:09 | -2.80044 | -56.13462 | 35958 ft | 465 kts | 326° |
| 2026-04-16 14:10 | -2.74639 | -56.17014 | 35959 ft | 465 kts | 326° |
| 2026-04-16 14:10 | -2.69234 | -56.20566 | 35955 ft | 464 kts | 326° |
| 2026-04-16 14:11 | -2.63831 | -56.24116 | 35956 ft | 464 kts | 326° |
| 2026-04-16 14:11 | -2.58520 | -56.27701 | 35957 ft | 463 kts | 322° |
| 2026-04-16 14:12 | -2.53437 | -56.31658 | 35963 ft | 463 kts | 320° |
| 2026-04-16 14:12 | -2.48405 | -56.35698 | 35954 ft | 463 kts | 320° |
| 2026-04-16 14:13 | -2.43357 | -56.39720 | 35959 ft | 464 kts | 321° |
| 2026-04-16 14:13 | -2.38290 | -56.43723 | 35957 ft | 464 kts | 321° |
| 2026-04-16 14:14 | -2.33214 | -56.47720 | 35959 ft | 464 kts | 321° |
| 2026-04-16 14:14 | -2.28140 | -56.51714 | 35958 ft | 464 kts | 321° |
| 2026-04-16 14:15 | -2.23059 | -56.55714 | 35957 ft | 465 kts | 321° |
| 2026-04-16 14:15 | -2.17976 | -56.59717 | 35958 ft | 465 kts | 321° |
| 2026-04-16 14:16 | -2.12896 | -56.63717 | 35957 ft | 465 kts | 321° |
| 2026-04-16 14:16 | -2.07848 | -56.67692 | 35962 ft | 465 kts | 321° |
| 2026-04-16 14:17 | -2.02757 | -56.71699 | 35956 ft | 465 kts | 321° |
| 2026-04-16 14:17 | -1.97666 | -56.75707 | 35959 ft | 465 kts | 321° |
| 2026-04-16 14:18 | -1.92576 | -56.79713 | 35961 ft | 465 kts | 321° |
| 2026-04-16 14:18 | -1.87493 | -56.83714 | 35959 ft | 465 kts | 321° |
| 2026-04-16 14:19 | -1.82415 | -56.87711 | 35958 ft | 465 kts | 321° |
| 2026-04-16 14:19 | -1.77329 | -56.91713 | 35956 ft | 464 kts | 321° |
| 2026-04-16 14:20 | -1.72260 | -56.95702 | 35959 ft | 464 kts | 321° |
| 2026-04-16 14:20 | -1.67224 | -56.99664 | 35963 ft | 463 kts | 321° |
| 2026-04-16 14:21 | -1.62158 | -57.03650 | 35959 ft | 463 kts | 321° |
| 2026-04-16 14:21 | -1.57095 | -57.07633 | 35958 ft | 463 kts | 321° |
| 2026-04-16 14:22 | -1.52034 | -57.11614 | 35961 ft | 463 kts | 321° |
| 2026-04-16 14:22 | -1.46981 | -57.15590 | 35962 ft | 462 kts | 321° |
| 2026-04-16 14:23 | -1.41948 | -57.19549 | 35961 ft | 463 kts | 321° |
| 2026-04-16 14:23 | -1.36889 | -57.23528 | 35962 ft | 463 kts | 321° |
| 2026-04-16 14:24 | -1.31825 | -57.27511 | 35962 ft | 464 kts | 321° |
| 2026-04-16 14:24 | -1.26748 | -57.31504 | 35961 ft | 465 kts | 321° |
| 2026-04-16 14:25 | -1.21654 | -57.35509 | 35965 ft | 465 kts | 321° |
| 2026-04-16 14:25 | -1.16563 | -57.39514 | 35958 ft | 466 kts | 321° |
| 2026-04-16 14:26 | -1.11454 | -57.43530 | 35962 ft | 467 kts | 321° |
| 2026-04-16 14:26 | -1.06335 | -57.47556 | 35961 ft | 468 kts | 321° |
| 2026-04-16 14:27 | -1.01243 | -57.51559 | 35963 ft | 469 kts | 321° |
| 2026-04-16 14:27 | -0.96111 | -57.55595 | 35961 ft | 469 kts | 321° |
| 2026-04-16 14:28 | -0.90979 | -57.59630 | 35962 ft | 470 kts | 321° |
| 2026-04-16 14:28 | -0.85841 | -57.63670 | 35966 ft | 470 kts | 321° |
| 2026-04-16 14:29 | -0.80705 | -57.67708 | 35964 ft | 469 kts | 321° |
| 2026-04-16 14:29 | -0.75608 | -57.71716 | 35965 ft | 469 kts | 321° |
| 2026-04-16 14:30 | -0.70482 | -57.75746 | 35961 ft | 468 kts | 321° |
| 2026-04-16 14:30 | -0.65462 | -57.79886 | 35951 ft | 467 kts | 314° |
| 2026-04-16 14:31 | -0.61006 | -57.84587 | 35961 ft | 466 kts | 311° |
| 2026-04-16 14:31 | -0.56608 | -57.89345 | 35967 ft | 466 kts | 312° |
| 2026-04-16 14:32 | -0.52187 | -57.94080 | 35959 ft | 465 kts | 312° |
| 2026-04-16 14:32 | -0.47755 | -57.98789 | 35960 ft | 465 kts | 312° |
| 2026-04-16 14:33 | -0.43320 | -58.03490 | 35962 ft | 465 kts | 312° |
| 2026-04-16 14:33 | -0.38882 | -58.08195 | 35961 ft | 465 kts | 312° |
| 2026-04-16 14:34 | -0.34445 | -58.12901 | 35967 ft | 465 kts | 312° |
| 2026-04-16 14:34 | -0.30012 | -58.17603 | 35967 ft | 465 kts | 312° |
| 2026-04-16 14:35 | -0.25573 | -58.22312 | 35967 ft | 465 kts | 312° |
| 2026-04-16 14:35 | -0.21160 | -58.26993 | 35969 ft | 466 kts | 312° |
| 2026-04-16 14:36 | -0.16721 | -58.31702 | 35966 ft | 466 kts | 312° |
| 2026-04-16 14:36 | -0.12282 | -58.36411 | 35975 ft | 466 kts | 312° |
| 2026-04-16 14:37 | -0.07837 | -58.41126 | 35966 ft | 466 kts | 312° |
| 2026-04-16 14:37 | -0.03398 | -58.45836 | 35965 ft | 466 kts | 312° |
| 2026-04-16 14:38 | 0.01048 | -58.50550 | 35966 ft | 466 kts | 312° |
| 2026-04-16 14:38 | 0.05494 | -58.55257 | 35972 ft | 465 kts | 312° |
| 2026-04-16 14:39 | 0.09935 | -58.59959 | 35965 ft | 465 kts | 312° |
| 2026-04-16 14:39 | 0.14342 | -58.64627 | 35966 ft | 464 kts | 312° |
| 2026-04-16 14:40 | 0.18768 | -58.69316 | 35967 ft | 464 kts | 312° |
| 2026-04-16 14:40 | 0.23196 | -58.74008 | 35962 ft | 463 kts | 312° |
| 2026-04-16 14:41 | 0.27621 | -58.78695 | 35963 ft | 463 kts | 312° |
| 2026-04-16 14:41 | 0.32042 | -58.83380 | 35965 ft | 463 kts | 311° |
| 2026-04-16 14:42 | 0.36456 | -58.88056 | 35960 ft | 462 kts | 311° |
| 2026-04-16 14:42 | 0.40872 | -58.92735 | 35963 ft | 462 kts | 311° |
| 2026-04-16 14:43 | 0.45282 | -58.97407 | 35961 ft | 462 kts | 311° |
| 2026-04-16 14:43 | 0.49666 | -59.02052 | 35963 ft | 462 kts | 311° |
| 2026-04-16 14:44 | 0.54080 | -59.06729 | 35960 ft | 462 kts | 311° |
| 2026-04-16 14:44 | 0.58500 | -59.11412 | 35964 ft | 462 kts | 311° |
| 2026-04-16 14:45 | 0.62911 | -59.16087 | 35960 ft | 463 kts | 311° |
| 2026-04-16 14:45 | 0.67330 | -59.20769 | 35958 ft | 463 kts | 311° |
| 2026-04-16 14:46 | 0.71746 | -59.25449 | 35953 ft | 463 kts | 311° |
| 2026-04-16 14:46 | 0.76168 | -59.30137 | 35959 ft | 463 kts | 311° |
| 2026-04-16 14:47 | 0.80580 | -59.34783 | 35955 ft | 463 kts | 313° |
| 2026-04-16 14:47 | 0.85261 | -59.39200 | 35960 ft | 463 kts | 316° |
| 2026-04-16 14:48 | 0.87624 | -59.41341 | 35938 ft | 452 kts | 316° |
| 2026-04-16 14:48 | 0.89916 | -59.43420 | 35938 ft | 438 kts | 316° |
| 2026-04-16 14:48 | 0.92137 | -59.45447 | 35929 ft | 425 kts | 316° |
| 2026-04-16 14:48 | 0.94281 | -59.47419 | 35934 ft | 411 kts | 316° |
| 2026-04-16 14:49 | 0.98446 | -59.51273 | 35965 ft | 411 kts | 315° |
| 2026-04-16 14:49 | 1.02685 | -59.55207 | 35975 ft | 421 kts | 315° |
| 2026-04-16 14:50 | 1.07040 | -59.59243 | 35965 ft | 430 kts | 316° |
| 2026-04-16 14:50 | 1.11435 | -59.63314 | 35958 ft | 432 kts | 316° |
| 2026-04-16 14:51 | 1.15853 | -59.67405 | 35949 ft | 431 kts | 316° |
| 2026-04-16 14:51 | 1.20199 | -59.71420 | 35941 ft | 422 kts | 315° |
| 2026-04-16 14:53 | 1.36753 | -59.86733 | 35956 ft | 425 kts | 315° |
| 2026-04-16 14:54 | 1.41070 | -59.90727 | 35954 ft | 426 kts | 315° |
| 2026-04-16 14:54 | 1.45419 | -59.94751 | 35956 ft | 426 kts | 315° |
| 2026-04-16 14:55 | 1.49777 | -59.98785 | 35957 ft | 427 kts | 315° |
| 2026-04-16 14:55 | 1.54135 | -60.02817 | 35959 ft | 427 kts | 315° |
| 2026-04-16 14:56 | 1.58902 | -60.06359 | 35957 ft | 429 kts | 331° |
| 2026-04-16 14:56 | 1.64256 | -60.08995 | 35957 ft | 429 kts | 333° |
| 2026-04-16 14:57 | 1.69636 | -60.11578 | 35959 ft | 428 kts | 333° |
| 2026-04-16 14:57 | 1.74988 | -60.14186 | 35959 ft | 427 kts | 332° |
| 2026-04-16 14:58 | 1.82969 | -60.18121 | 35957 ft | 426 kts | 332° |
| 2026-04-16 14:59 | 1.88265 | -60.20739 | 35966 ft | 424 kts | 332° |
| 2026-04-16 14:59 | 1.93521 | -60.23338 | 35960 ft | 423 kts | 332° |
| 2026-04-16 15:00 | 1.98792 | -60.25943 | 35962 ft | 422 kts | 332° |
| 2026-04-16 15:00 | 2.04055 | -60.28544 | 35963 ft | 421 kts | 332° |
| 2026-04-16 15:01 | 2.09314 | -60.31144 | 35967 ft | 422 kts | 332° |
| 2026-04-16 15:01 | 2.14546 | -60.33731 | 35963 ft | 422 kts | 332° |
| 2026-04-16 15:02 | 2.19808 | -60.36333 | 35965 ft | 422 kts | 332° |
| 2026-04-16 15:02 | 2.25081 | -60.38940 | 35968 ft | 423 kts | 332° |
| 2026-04-16 15:03 | 2.30353 | -60.41547 | 35970 ft | 423 kts | 332° |
| 2026-04-16 15:03 | 2.35640 | -60.44161 | 35961 ft | 424 kts | 332° |
| 2026-04-16 15:04 | 2.40933 | -60.46779 | 35966 ft | 425 kts | 332° |
| 2026-04-16 15:04 | 2.46242 | -60.49405 | 35958 ft | 425 kts | 332° |
| 2026-04-16 15:05 | 2.51545 | -60.52028 | 35962 ft | 425 kts | 331° |
| 2026-04-16 15:05 | 2.56855 | -60.54655 | 35950 ft | 425 kts | 331° |
| 2026-04-16 15:06 | 2.62158 | -60.57278 | 35950 ft | 425 kts | 331° |
| 2026-04-16 15:06 | 2.67419 | -60.59881 | 35948 ft | 424 kts | 331° |
| 2026-04-16 15:07 | 2.72709 | -60.62499 | 35941 ft | 424 kts | 331° |
| 2026-04-16 15:07 | 2.77989 | -60.65113 | 35939 ft | 423 kts | 331° |
| 2026-04-16 15:08 | 2.83263 | -60.67724 | 35940 ft | 422 kts | 331° |
| 2026-04-16 15:08 | 2.88531 | -60.70331 | 35943 ft | 422 kts | 331° |
| 2026-04-16 15:09 | 2.93668 | -60.72870 | 35938 ft | 422 kts | 331° |
| 2026-04-16 15:09 | 2.98931 | -60.75466 | 35938 ft | 422 kts | 331° |
| 2026-04-16 15:10 | 3.04172 | -60.78052 | 35654 ft | 427 kts | 331° |
| 2026-04-16 15:10 | 3.06842 | -60.79371 | 35274 ft | 426 kts | 331° |
| 2026-04-16 15:10 | 3.09495 | -60.80681 | 34899 ft | 423 kts | 331° |
| 2026-04-16 15:10 | 3.12131 | -60.81973 | 34531 ft | 420 kts | 332° |
| 2026-04-16 15:11 | 3.14779 | -60.83196 | 34174 ft | 418 kts | 333° |
| 2026-04-16 15:11 | 3.17429 | -60.84385 | 33696 ft | 419 kts | 334° |
| 2026-04-16 15:11 | 3.20090 | -60.85573 | 33204 ft | 421 kts | 334° |
| 2026-04-16 15:11 | 3.22810 | -60.86762 | 32732 ft | 432 kts | 335° |
| 2026-04-16 15:12 | 3.25607 | -60.87938 | 32263 ft | 439 kts | 335° |
| 2026-04-16 15:12 | 3.28432 | -60.89119 | 31792 ft | 441 kts | 336° |
| 2026-04-16 15:12 | 3.31262 | -60.90300 | 31311 ft | 439 kts | 336° |
| 2026-04-16 15:12 | 3.34074 | -60.91478 | 30850 ft | 438 kts | 336° |
| 2026-04-16 15:13 | 3.36889 | -60.92662 | 30399 ft | 438 kts | 336° |
| 2026-04-16 15:13 | 3.39698 | -60.93852 | 29935 ft | 438 kts | 336° |
| 2026-04-16 15:13 | 3.42493 | -60.95043 | 29413 ft | 437 kts | 336° |
| 2026-04-16 15:13 | 3.45247 | -60.96222 | 28903 ft | 435 kts | 336° |
| 2026-04-16 15:14 | 3.48027 | -60.97415 | 28450 ft | 432 kts | 336° |
| 2026-04-16 15:14 | 3.50760 | -60.98590 | 28216 ft | 424 kts | 336° |
| 2026-04-16 15:14 | 3.53445 | -60.99745 | 27949 ft | 417 kts | 336° |
| 2026-04-16 15:14 | 3.56093 | -61.00884 | 27690 ft | 410 kts | 336° |
| 2026-04-16 15:15 | 3.58693 | -61.02002 | 27436 ft | 404 kts | 336° |
| 2026-04-16 15:15 | 3.61258 | -61.03106 | 27180 ft | 398 kts | 336° |
| 2026-04-16 15:15 | 3.63780 | -61.04191 | 26940 ft | 392 kts | 336° |
| 2026-04-16 15:15 | 3.66271 | -61.05263 | 26688 ft | 387 kts | 336° |
| 2026-04-16 15:16 | 3.68722 | -61.06317 | 26446 ft | 381 kts | 336° |
| 2026-04-16 15:16 | 3.71145 | -61.07360 | 26195 ft | 376 kts | 336° |
| 2026-04-16 15:16 | 3.73538 | -61.08390 | 25975 ft | 372 kts | 336° |
| 2026-04-16 15:16 | 3.75896 | -61.09405 | 25732 ft | 367 kts | 336° |
| 2026-04-16 15:17 | 3.78231 | -61.10411 | 25500 ft | 363 kts | 336° |
| 2026-04-16 15:17 | 3.80536 | -61.11404 | 25270 ft | 359 kts | 336° |
| 2026-04-16 15:17 | 3.82821 | -61.12388 | 25042 ft | 355 kts | 336° |
| 2026-04-16 15:17 | 3.85088 | -61.13364 | 24817 ft | 353 kts | 336° |
| 2026-04-16 15:18 | 3.87338 | -61.14333 | 24596 ft | 351 kts | 336° |
| 2026-04-16 15:18 | 3.89581 | -61.15299 | 24387 ft | 353 kts | 336° |
| 2026-04-16 15:18 | 3.91845 | -61.16276 | 24180 ft | 355 kts | 336° |
| 2026-04-16 15:18 | 3.94127 | -61.17260 | 23965 ft | 357 kts | 336° |
| 2026-04-16 15:19 | 3.96405 | -61.18243 | 23752 ft | 356 kts | 336° |
| 2026-04-16 15:19 | 3.98676 | -61.19224 | 23537 ft | 355 kts | 336° |
| 2026-04-16 15:19 | 4.00937 | -61.20200 | 23296 ft | 354 kts | 336° |
| 2026-04-16 15:19 | 4.03194 | -61.21177 | 23027 ft | 352 kts | 336° |
| 2026-04-16 15:20 | 4.05436 | -61.22149 | 22776 ft | 351 kts | 336° |
| 2026-04-16 15:20 | 4.07672 | -61.23121 | 22524 ft | 349 kts | 336° |
| 2026-04-16 15:20 | 4.09847 | -61.24190 | 22244 ft | 347 kts | 322° |
| 2026-04-16 15:20 | 4.11368 | -61.25986 | 22249 ft | 338 kts | 293° |
| 2026-04-16 15:21 | 4.11912 | -61.28265 | 22275 ft | 343 kts | 269° |
| 2026-04-16 15:21 | 4.11622 | -61.30637 | 22319 ft | 355 kts | 252° |
| 2026-04-16 15:21 | 4.10604 | -61.32925 | 22333 ft | 365 kts | 235° |
| 2026-04-16 15:21 | 4.08905 | -61.34799 | 22323 ft | 364 kts | 215° |
| 2026-04-16 15:22 | 4.06657 | -61.35893 | 22295 ft | 359 kts | 191° |
| 2026-04-16 15:22 | 4.04197 | -61.35946 | 22291 ft | 353 kts | 168° |
| 2026-04-16 15:22 | 4.01863 | -61.35212 | 22325 ft | 353 kts | 160° |
| 2026-04-16 15:22 | 3.99564 | -61.34317 | 22265 ft | 354 kts | 158° |
| 2026-04-16 15:23 | 3.97267 | -61.33389 | 21805 ft | 356 kts | 158° |
| 2026-04-16 15:23 | 3.94987 | -61.32462 | 21457 ft | 353 kts | 158° |
| 2026-04-16 15:23 | 3.92708 | -61.31541 | 21080 ft | 351 kts | 158° |
| 2026-04-16 15:23 | 3.90448 | -61.30637 | 20729 ft | 349 kts | 158° |
| 2026-04-16 15:24 | 3.88192 | -61.29741 | 20366 ft | 348 kts | 158° |
| 2026-04-16 15:24 | 3.85945 | -61.28854 | 20007 ft | 346 kts | 158° |
| 2026-04-16 15:24 | 3.83709 | -61.27974 | 19657 ft | 345 kts | 158° |
| 2026-04-16 15:24 | 3.81477 | -61.27098 | 19288 ft | 344 kts | 158° |
| 2026-04-16 15:25 | 3.79253 | -61.26226 | 18939 ft | 343 kts | 157° |
| 2026-04-16 15:25 | 3.77033 | -61.25356 | 18570 ft | 342 kts | 157° |
| 2026-04-16 15:25 | 3.74843 | -61.24497 | 18218 ft | 342 kts | 157° |
| 2026-04-16 15:25 | 3.72627 | -61.23629 | 17822 ft | 341 kts | 157° |
| 2026-04-16 15:26 | 3.70424 | -61.22767 | 17452 ft | 340 kts | 157° |
| 2026-04-16 15:26 | 3.68222 | -61.21905 | 17087 ft | 338 kts | 156° |
| 2026-04-16 15:26 | 3.66040 | -61.21050 | 16731 ft | 336 kts | 156° |
| 2026-04-16 15:26 | 3.63865 | -61.20199 | 16381 ft | 334 kts | 156° |
| 2026-04-16 15:27 | 3.61702 | -61.19352 | 16030 ft | 333 kts | 156° |
| 2026-04-16 15:27 | 3.59552 | -61.18510 | 15685 ft | 332 kts | 156° |
| 2026-04-16 15:27 | 3.57405 | -61.17670 | 15347 ft | 330 kts | 156° |
| 2026-04-16 15:27 | 3.55273 | -61.16835 | 15002 ft | 329 kts | 156° |
| 2026-04-16 15:28 | 3.53142 | -61.16001 | 14660 ft | 327 kts | 156° |
| 2026-04-16 15:28 | 3.51025 | -61.15172 | 14310 ft | 327 kts | 156° |
| 2026-04-16 15:28 | 3.48903 | -61.14342 | 13955 ft | 327 kts | 156° |
| 2026-04-16 15:28 | 3.46793 | -61.13516 | 13606 ft | 326 kts | 156° |
| 2026-04-16 15:29 | 3.44711 | -61.12701 | 13231 ft | 325 kts | 156° |
| 2026-04-16 15:29 | 3.42611 | -61.11879 | 12873 ft | 323 kts | 156° |
| 2026-04-16 15:29 | 3.40528 | -61.11064 | 12523 ft | 321 kts | 156° |
| 2026-04-16 15:29 | 3.38454 | -61.10253 | 12183 ft | 319 kts | 156° |
| 2026-04-16 15:30 | 3.36398 | -61.09449 | 11852 ft | 317 kts | 156° |
| 2026-04-16 15:30 | 3.34345 | -61.08645 | 11510 ft | 315 kts | 156° |
| 2026-04-16 15:30 | 3.32301 | -61.07846 | 11186 ft | 314 kts | 156° |
| 2026-04-16 15:30 | 3.30276 | -61.07054 | 10849 ft | 312 kts | 156° |
| 2026-04-16 15:31 | 3.28258 | -61.06264 | 10520 ft | 311 kts | 156° |
| 2026-04-16 15:31 | 3.26245 | -61.05477 | 10224 ft | 308 kts | 156° |
| 2026-04-16 15:31 | 3.24294 | -61.04715 | 10094 ft | 294 kts | 156° |
| 2026-04-16 15:31 | 3.22446 | -61.03994 | 9937 ft | 285 kts | 156° |
| 2026-04-16 15:32 | 3.20579 | -61.03263 | 9634 ft | 284 kts | 155° |
| 2026-04-16 15:32 | 3.18764 | -61.02553 | 9343 ft | 283 kts | 155° |
| 2026-04-16 15:32 | 3.16938 | -61.01837 | 9052 ft | 282 kts | 155° |
| 2026-04-16 15:32 | 3.15113 | -61.01123 | 8747 ft | 281 kts | 156° |
| 2026-04-16 15:33 | 3.13292 | -61.00411 | 8471 ft | 280 kts | 155° |
| 2026-04-16 15:33 | 3.11482 | -60.99703 | 8184 ft | 281 kts | 155° |
| 2026-04-16 15:33 | 3.09658 | -60.98989 | 7889 ft | 282 kts | 155° |
| 2026-04-16 15:33 | 3.07835 | -60.98276 | 7587 ft | 282 kts | 155° |
| 2026-04-16 15:34 | 3.06007 | -60.97560 | 7294 ft | 281 kts | 155° |
| 2026-04-16 15:34 | 3.04193 | -60.96851 | 7002 ft | 280 kts | 155° |
| 2026-04-16 15:34 | 3.02382 | -60.96144 | 6723 ft | 280 kts | 155° |
| 2026-04-16 15:34 | 3.00565 | -60.95433 | 6440 ft | 279 kts | 155° |
| 2026-04-16 15:35 | 2.98752 | -60.94724 | 6133 ft | 280 kts | 155° |
| 2026-04-16 15:35 | 2.96943 | -60.94016 | 5825 ft | 279 kts | 155° |
| 2026-04-16 15:35 | 2.95133 | -60.93309 | 5530 ft | 279 kts | 155° |
| 2026-04-16 15:35 | 2.93328 | -60.92603 | 5221 ft | 278 kts | 155° |
| 2026-04-16 15:36 | 2.91527 | -60.91898 | 4945 ft | 277 kts | 155° |
| 2026-04-16 15:36 | 2.89729 | -60.91195 | 4662 ft | 277 kts | 155° |
| 2026-04-16 15:36 | 2.87934 | -60.90493 | 4348 ft | 276 kts | 155° |
| 2026-04-16 15:36 | 2.86151 | -60.89799 | 4054 ft | 275 kts | 155° |
| 2026-04-16 15:37 | 2.84424 | -60.89054 | 3820 ft | 264 kts | 150° |
| 2026-04-16 15:37 | 2.82827 | -60.88231 | 3607 ft | 253 kts | 148° |
| 2026-04-16 15:37 | 2.81291 | -60.87424 | 3424 ft | 245 kts | 148° |
| 2026-04-16 15:37 | 2.79797 | -60.86648 | 3198 ft | 239 kts | 149° |
| 2026-04-16 15:38 | 2.78381 | -60.85880 | 3005 ft | 229 kts | 140° |
| 2026-04-16 15:38 | 2.77461 | -60.84705 | 2847 ft | 206 kts | 104° |
| 2026-04-16 15:38 | 2.77453 | -60.83366 | 2683 ft | 187 kts | 69° |
| 2026-04-16 15:38 | 2.77951 | -60.82227 | 2534 ft | 171 kts | 65° |
| 2026-04-16 15:39 | 2.78446 | -60.81182 | 2418 ft | 162 kts | 64° |
| 2026-04-16 15:39 | 2.78942 | -60.80193 | 2319 ft | 153 kts | 63° |
| 2026-04-16 15:39 | 2.79420 | -60.79250 | 2200 ft | 156 kts | 64° |
| 2026-04-16 15:39 | 2.79914 | -60.78278 | 2016 ft | 155 kts | 62° |
| 2026-04-16 15:40 | 2.80403 | -60.77320 | 1794 ft | 154 kts | 64° |
| 2026-04-16 15:40 | 2.80720 | -60.76697 | 1678 ft | 149 kts | 65° |
| 2026-04-16 15:40 | 2.81187 | -60.75778 | 1487 ft | 148 kts | 60° |
| 2026-04-16 15:40 | 2.81656 | -60.74875 | 1305 ft | 144 kts | 64° |
| 2026-04-16 15:41 | 2.82103 | -60.73977 | 1132 ft | 145 kts | 64° |
| 2026-04-16 15:41 | 2.82557 | -60.73082 | 934 ft | 142 kts | 61° |
| 2026-04-16 15:41 | 2.83007 | -60.72200 | 726 ft | 147 kts | 63° |
| 2026-04-16 15:41 | 2.83471 | -60.71292 | 577 ft | 148 kts | 64° |
| 2026-04-16 15:42 | 2.83941 | -60.70360 | 378 ft | 152 kts | 63° |
| 2026-04-16 15:42 | 2.84403 | -60.69436 | 277 ft | 143 kts | 62° |
| 2026-04-16 15:42 | 2.84772 | -60.68731 | 281 ft | 84 kts | 63° |
| 2026-04-16 15:42 | 2.84946 | -60.68390 | 279 ft | 38 kts | 63° |
| 2026-04-16 15:43 | 2.85039 | -60.68207 | 281 ft | 18 kts | 65° |
| 2026-04-16 15:43 | 2.84980 | -60.68168 | 281 ft | 13 kts | 202° |
| 2026-04-16 15:43 | 2.84903 | -60.68216 | 279 ft | 13 kts | 213° |
| 2026-04-16 15:43 | 2.84840 | -60.68275 | 279 ft | 12 kts | 235° |
| 2026-04-16 15:44 | 2.84799 | -60.68350 | 282 ft | 12 kts | 243° |
| 2026-04-16 15:44 | 2.84761 | -60.68424 | 279 ft | 12 kts | 243° |
| 2026-04-16 15:44 | 2.84724 | -60.68496 | 280 ft | 11 kts | 243° |
| 2026-04-16 15:44 | 2.84688 | -60.68567 | 279 ft | 11 kts | 243° |
| 2026-04-16 15:45 | 2.84653 | -60.68634 | 279 ft | 11 kts | 243° |
| 2026-04-16 15:45 | 2.84619 | -60.68701 | 279 ft | 11 kts | 243° |
| 2026-04-16 15:45 | 2.84586 | -60.68765 | 279 ft | 10 kts | 243° |
| 2026-04-16 15:45 | 2.84554 | -60.68828 | 282 ft | 10 kts | 243° |
| 2026-04-16 15:46 | 2.84523 | -60.68889 | 281 ft | 10 kts | 243° |
| 2026-04-16 15:46 | 2.84493 | -60.68948 | 279 ft | 9 kts | 243° |
| 2026-04-16 15:46 | 2.84463 | -60.69006 | 279 ft | 9 kts | 243° |
| 2026-04-16 15:46 | 2.84435 | -60.69062 | 279 ft | 9 kts | 243° |
| 2026-04-16 15:47 | 2.84407 | -60.69117 | 279 ft | 9 kts | 243° |
| 2026-04-16 15:47 | 2.84379 | -60.69170 | 280 ft | 8 kts | 243° |
| 2026-04-16 15:47 | 2.84353 | -60.69221 | 278 ft | 8 kts | 242° |
| 2026-04-16 15:47 | 2.84302 | -60.69236 | 279 ft | 8 kts | 195° |
| 2026-04-16 15:48 | 2.84258 | -60.69270 | 279 ft | 8 kts | 195° |
| 2026-04-16 15:48 | 2.84210 | -60.69252 | 279 ft | 5 kts | 152° |
| 2026-04-16 15:48 | 2.84200 | -60.69247 | 279 ft | 0 kts | 153° |